sensor_id;sensor_type;location;lat;lon;timestamp;P1;durP1;ratioP1;P2;durP2;ratioP2
3625;SDS011;1827;50.534;8.316;2023-04-24T00:00:53;17.37;;;3.37;;
3625;SDS011;1827;50.534;8.316;2023-04-24T00:03:24;14.37;;;2.83;;
3625;SDS011;1827;50.534;8.316;2023-04-24T00:05:51;16.90;;;2.70;;
3625;SDS011;1827;50.534;8.316;2023-04-24T00:08:17;18.23;;;2.97;;
3625;SDS011;1827;50.534;8.316;2023-04-24T00:10:43;16.00;;;2.83;;
3625;SDS011;1827;50.534;8.316;2023-04-24T00:13:08;15.53;;;2.90;;
3625;SDS011;1827;50.534;8.316;2023-04-24T00:15:34;18.00;;;3.00;;
3625;SDS011;1827;50.534;8.316;2023-04-24T00:18:00;14.63;;;2.93;;
3625;SDS011;1827;50.534;8.316;2023-04-24T00:20:29;15.60;;;3.30;;
3625;SDS011;1827;50.534;8.316;2023-04-24T00:22:55;16.97;;;3.40;;
3625;SDS011;1827;50.534;8.316;2023-04-24T00:25:20;14.77;;;2.90;;
3625;SDS011;1827;50.534;8.316;2023-04-24T00:27:46;14.57;;;2.70;;
3625;SDS011;1827;50.534;8.316;2023-04-24T00:30:12;14.83;;;3.07;;
3625;SDS011;1827;50.534;8.316;2023-04-24T00:32:38;15.80;;;2.93;;
3625;SDS011;1827;50.534;8.316;2023-04-24T00:35:04;15.73;;;3.37;;
3625;SDS011;1827;50.534;8.316;2023-04-24T00:37:30;16.20;;;3.37;;
3625;SDS011;1827;50.534;8.316;2023-04-24T00:39:56;14.77;;;2.93;;
3625;SDS011;1827;50.534;8.316;2023-04-24T00:42:22;15.97;;;2.70;;
3625;SDS011;1827;50.534;8.316;2023-04-24T00:44:48;22.37;;;3.30;;
3625;SDS011;1827;50.534;8.316;2023-04-24T00:47:14;14.80;;;2.90;;
3625;SDS011;1827;50.534;8.316;2023-04-24T00:49:40;15.70;;;3.10;;
3625;SDS011;1827;50.534;8.316;2023-04-24T00:52:06;25.43;;;3.70;;
3625;SDS011;1827;50.534;8.316;2023-04-24T00:54:34;14.07;;;2.67;;
3625;SDS011;1827;50.534;8.316;2023-04-24T00:57:01;16.97;;;2.80;;
3625;SDS011;1827;50.534;8.316;2023-04-24T00:59:28;19.33;;;2.80;;
3625;SDS011;1827;50.534;8.316;2023-04-24T01:01:54;15.60;;;2.80;;
3625;SDS011;1827;50.534;8.316;2023-04-24T01:04:21;15.87;;;2.60;;
3625;SDS011;1827;50.534;8.316;2023-04-24T01:06:47;17.03;;;2.80;;
3625;SDS011;1827;50.534;8.316;2023-04-24T01:09:15;15.17;;;2.30;;
3625;SDS011;1827;50.534;8.316;2023-04-24T01:11:41;16.57;;;2.93;;
3625;SDS011;1827;50.534;8.316;2023-04-24T01:14:08;15.53;;;2.60;;
3625;SDS011;1827;50.534;8.316;2023-04-24T01:16:34;14.00;;;2.40;;
3625;SDS011;1827;50.534;8.316;2023-04-24T01:19:00;17.47;;;2.70;;
3625;SDS011;1827;50.534;8.316;2023-04-24T01:21:27;26.73;;;3.00;;
3625;SDS011;1827;50.534;8.316;2023-04-24T01:23:58;18.97;;;2.87;;
3625;SDS011;1827;50.534;8.316;2023-04-24T01:26:23;16.93;;;3.00;;
3625;SDS011;1827;50.534;8.316;2023-04-24T01:28:51;16.30;;;2.90;;
3625;SDS011;1827;50.534;8.316;2023-04-24T01:31:17;19.90;;;3.00;;
3625;SDS011;1827;50.534;8.316;2023-04-24T01:33:45;15.60;;;3.07;;
3625;SDS011;1827;50.534;8.316;2023-04-24T01:36:11;16.40;;;3.30;;
3625;SDS011;1827;50.534;8.316;2023-04-24T01:38:37;15.60;;;2.70;;
3625;SDS011;1827;50.534;8.316;2023-04-24T01:41:03;22.13;;;3.30;;
3625;SDS011;1827;50.534;8.316;2023-04-24T01:43:29;16.37;;;3.33;;
3625;SDS011;1827;50.534;8.316;2023-04-24T01:45:56;16.43;;;3.53;;
3625;SDS011;1827;50.534;8.316;2023-04-24T01:48:22;18.73;;;3.37;;
3625;SDS011;1827;50.534;8.316;2023-04-24T01:50:48;14.70;;;3.63;;
3625;SDS011;1827;50.534;8.316;2023-04-24T01:53:14;15.60;;;3.10;;
3625;SDS011;1827;50.534;8.316;2023-04-24T01:55:41;17.40;;;3.17;;
3625;SDS011;1827;50.534;8.316;2023-04-24T01:58:06;20.60;;;3.57;;
3625;SDS011;1827;50.534;8.316;2023-04-24T02:00:32;15.43;;;3.10;;
3625;SDS011;1827;50.534;8.316;2023-04-24T02:02:59;17.97;;;3.30;;
3625;SDS011;1827;50.534;8.316;2023-04-24T02:05:27;17.73;;;3.13;;
3625;SDS011;1827;50.534;8.316;2023-04-24T02:07:54;17.00;;;3.50;;
3625;SDS011;1827;50.534;8.316;2023-04-24T02:10:20;20.53;;;4.07;;
3625;SDS011;1827;50.534;8.316;2023-04-24T02:12:45;22.17;;;3.10;;
3625;SDS011;1827;50.534;8.316;2023-04-24T02:15:11;16.50;;;3.13;;
3625;SDS011;1827;50.534;8.316;2023-04-24T02:17:37;14.97;;;2.90;;
3625;SDS011;1827;50.534;8.316;2023-04-24T02:20:03;15.60;;;2.97;;
3625;SDS011;1827;50.534;8.316;2023-04-24T02:22:30;16.70;;;2.73;;
3625;SDS011;1827;50.534;8.316;2023-04-24T02:25:00;15.97;;;2.87;;
3625;SDS011;1827;50.534;8.316;2023-04-24T02:27:26;16.60;;;2.73;;
3625;SDS011;1827;50.534;8.316;2023-04-24T02:29:52;16.53;;;2.50;;
3625;SDS011;1827;50.534;8.316;2023-04-24T02:32:17;14.20;;;2.77;;
3625;SDS011;1827;50.534;8.316;2023-04-24T02:34:43;14.43;;;2.80;;
3625;SDS011;1827;50.534;8.316;2023-04-24T02:37:08;13.63;;;2.30;;
3625;SDS011;1827;50.534;8.316;2023-04-24T02:39:35;14.33;;;2.70;;
3625;SDS011;1827;50.534;8.316;2023-04-24T02:42:01;14.60;;;2.60;;
3625;SDS011;1827;50.534;8.316;2023-04-24T02:44:26;14.33;;;2.60;;
3625;SDS011;1827;50.534;8.316;2023-04-24T02:46:52;15.57;;;2.53;;
3625;SDS011;1827;50.534;8.316;2023-04-24T02:49:17;14.60;;;2.50;;
3625;SDS011;1827;50.534;8.316;2023-04-24T02:51:43;13.20;;;2.30;;
3625;SDS011;1827;50.534;8.316;2023-04-24T02:54:09;13.17;;;2.30;;
3625;SDS011;1827;50.534;8.316;2023-04-24T02:56:35;15.53;;;2.70;;
3625;SDS011;1827;50.534;8.316;2023-04-24T02:59:02;14.30;;;2.73;;
3625;SDS011;1827;50.534;8.316;2023-04-24T03:01:29;14.00;;;2.73;;
3625;SDS011;1827;50.534;8.316;2023-04-24T03:03:54;12.90;;;2.20;;
3625;SDS011;1827;50.534;8.316;2023-04-24T03:06:20;14.43;;;2.80;;
3625;SDS011;1827;50.534;8.316;2023-04-24T03:08:46;13.17;;;2.20;;
3625;SDS011;1827;50.534;8.316;2023-04-24T03:11:12;14.80;;;2.40;;
3625;SDS011;1827;50.534;8.316;2023-04-24T03:13:37;14.60;;;2.20;;
3625;SDS011;1827;50.534;8.316;2023-04-24T03:16:03;15.30;;;2.37;;
3625;SDS011;1827;50.534;8.316;2023-04-24T03:18:29;14.90;;;2.80;;
3625;SDS011;1827;50.534;8.316;2023-04-24T03:20:56;15.17;;;2.60;;
3625;SDS011;1827;50.534;8.316;2023-04-24T03:23:21;14.53;;;2.20;;
3625;SDS011;1827;50.534;8.316;2023-04-24T03:25:47;13.60;;;2.40;;
3625;SDS011;1827;50.534;8.316;2023-04-24T03:28:14;13.50;;;2.67;;
3625;SDS011;1827;50.534;8.316;2023-04-24T03:30:47;14.40;;;2.87;;
3625;SDS011;1827;50.534;8.316;2023-04-24T03:33:15;13.60;;;2.57;;
3625;SDS011;1827;50.534;8.316;2023-04-24T03:35:50;16.23;;;2.63;;
3625;SDS011;1827;50.534;8.316;2023-04-24T03:38:16;14.90;;;2.67;;
3625;SDS011;1827;50.534;8.316;2023-04-24T03:40:41;14.07;;;2.80;;
3625;SDS011;1827;50.534;8.316;2023-04-24T03:43:27;13.13;;;2.30;;
3625;SDS011;1827;50.534;8.316;2023-04-24T03:45:55;19.10;;;2.60;;
3625;SDS011;1827;50.534;8.316;2023-04-24T03:48:20;13.33;;;2.60;;
3625;SDS011;1827;50.534;8.316;2023-04-24T03:50:48;15.33;;;2.50;;
3625;SDS011;1827;50.534;8.316;2023-04-24T03:53:14;30.37;;;2.60;;
3625;SDS011;1827;50.534;8.316;2023-04-24T03:55:41;18.67;;;2.50;;
3625;SDS011;1827;50.534;8.316;2023-04-24T03:58:08;14.50;;;2.80;;
3625;SDS011;1827;50.534;8.316;2023-04-24T04:00:34;15.70;;;2.57;;
3625;SDS011;1827;50.534;8.316;2023-04-24T04:03:18;13.80;;;2.60;;
3625;SDS011;1827;50.534;8.316;2023-04-24T04:05:44;16.43;;;2.50;;
3625;SDS011;1827;50.534;8.316;2023-04-24T04:08:10;15.57;;;2.63;;
3625;SDS011;1827;50.534;8.316;2023-04-24T04:10:36;13.73;;;2.83;;
3625;SDS011;1827;50.534;8.316;2023-04-24T04:13:03;14.27;;;2.90;;
3625;SDS011;1827;50.534;8.316;2023-04-24T04:15:30;15.20;;;2.77;;
3625;SDS011;1827;50.534;8.316;2023-04-24T04:17:56;13.90;;;2.87;;
3625;SDS011;1827;50.534;8.316;2023-04-24T04:20:22;16.27;;;2.90;;
3625;SDS011;1827;50.534;8.316;2023-04-24T04:22:48;16.47;;;3.67;;
3625;SDS011;1827;50.534;8.316;2023-04-24T04:25:21;19.00;;;3.00;;
3625;SDS011;1827;50.534;8.316;2023-04-24T04:27:48;16.47;;;2.87;;
3625;SDS011;1827;50.534;8.316;2023-04-24T04:30:14;14.67;;;2.93;;
3625;SDS011;1827;50.534;8.316;2023-04-24T04:32:47;14.27;;;3.03;;
3625;SDS011;1827;50.534;8.316;2023-04-24T04:35:13;14.87;;;2.37;;
3625;SDS011;1827;50.534;8.316;2023-04-24T04:37:38;15.60;;;3.00;;
3625;SDS011;1827;50.534;8.316;2023-04-24T04:40:31;16.70;;;3.50;;
3625;SDS011;1827;50.534;8.316;2023-04-24T04:43:02;15.00;;;2.97;;
3625;SDS011;1827;50.534;8.316;2023-04-24T04:45:33;14.00;;;3.00;;
3625;SDS011;1827;50.534;8.316;2023-04-24T04:48:22;14.70;;;3.50;;
3625;SDS011;1827;50.534;8.316;2023-04-24T04:50:48;16.27;;;3.70;;
3625;SDS011;1827;50.534;8.316;2023-04-24T04:53:15;19.30;;;3.60;;
3625;SDS011;1827;50.534;8.316;2023-04-24T04:55:41;14.87;;;3.67;;
3625;SDS011;1827;50.534;8.316;2023-04-24T04:58:13;15.77;;;3.60;;
3625;SDS011;1827;50.534;8.316;2023-04-24T05:00:38;18.57;;;3.70;;
3625;SDS011;1827;50.534;8.316;2023-04-24T05:03:27;15.37;;;3.60;;
3625;SDS011;1827;50.534;8.316;2023-04-24T05:06:01;15.70;;;3.93;;
3625;SDS011;1827;50.534;8.316;2023-04-24T05:08:30;20.20;;;4.20;;
3625;SDS011;1827;50.534;8.316;2023-04-24T05:10:57;16.33;;;3.93;;
3625;SDS011;1827;50.534;8.316;2023-04-24T05:13:25;16.10;;;4.20;;
3625;SDS011;1827;50.534;8.316;2023-04-24T05:15:51;15.90;;;4.60;;
3625;SDS011;1827;50.534;8.316;2023-04-24T05:18:17;15.30;;;4.30;;
3625;SDS011;1827;50.534;8.316;2023-04-24T05:20:43;15.93;;;3.83;;
3625;SDS011;1827;50.534;8.316;2023-04-24T05:23:09;18.23;;;4.77;;
3625;SDS011;1827;50.534;8.316;2023-04-24T05:25:37;17.40;;;4.10;;
3625;SDS011;1827;50.534;8.316;2023-04-24T05:28:08;20.60;;;4.07;;
3625;SDS011;1827;50.534;8.316;2023-04-24T05:30:34;16.50;;;4.13;;
3625;SDS011;1827;50.534;8.316;2023-04-24T05:33:00;17.13;;;4.23;;
3625;SDS011;1827;50.534;8.316;2023-04-24T05:35:26;18.50;;;5.13;;
3625;SDS011;1827;50.534;8.316;2023-04-24T05:37:51;15.30;;;3.87;;
3625;SDS011;1827;50.534;8.316;2023-04-24T05:40:17;15.87;;;3.73;;
3625;SDS011;1827;50.534;8.316;2023-04-24T05:42:43;16.37;;;4.17;;
3625;SDS011;1827;50.534;8.316;2023-04-24T05:45:09;16.50;;;3.13;;
3625;SDS011;1827;50.534;8.316;2023-04-24T05:47:41;15.67;;;3.60;;
3625;SDS011;1827;50.534;8.316;2023-04-24T05:50:06;19.07;;;4.70;;
3625;SDS011;1827;50.534;8.316;2023-04-24T05:52:32;19.77;;;4.00;;
3625;SDS011;1827;50.534;8.316;2023-04-24T05:55:01;15.73;;;3.80;;
3625;SDS011;1827;50.534;8.316;2023-04-24T05:57:31;18.40;;;3.43;;
3625;SDS011;1827;50.534;8.316;2023-04-24T06:00:01;16.63;;;4.13;;
3625;SDS011;1827;50.534;8.316;2023-04-24T06:02:28;17.10;;;4.10;;
3625;SDS011;1827;50.534;8.316;2023-04-24T06:04:58;17.10;;;4.10;;
3625;SDS011;1827;50.534;8.316;2023-04-24T06:07:25;18.17;;;4.17;;
3625;SDS011;1827;50.534;8.316;2023-04-24T06:09:51;18.60;;;4.60;;
3625;SDS011;1827;50.534;8.316;2023-04-24T06:12:17;15.30;;;4.17;;
3625;SDS011;1827;50.534;8.316;2023-04-24T06:14:53;16.80;;;4.77;;
3625;SDS011;1827;50.534;8.316;2023-04-24T06:17:25;19.23;;;5.57;;
3625;SDS011;1827;50.534;8.316;2023-04-24T06:19:51;17.97;;;5.17;;
3625;SDS011;1827;50.534;8.316;2023-04-24T06:22:17;18.53;;;4.47;;
3625;SDS011;1827;50.534;8.316;2023-04-24T06:24:43;17.10;;;5.10;;
3625;SDS011;1827;50.534;8.316;2023-04-24T06:27:09;18.80;;;4.83;;
3625;SDS011;1827;50.534;8.316;2023-04-24T06:29:35;19.50;;;5.37;;
3625;SDS011;1827;50.534;8.316;2023-04-24T06:32:02;16.00;;;4.73;;
3625;SDS011;1827;50.534;8.316;2023-04-24T06:34:27;17.20;;;4.87;;
3625;SDS011;1827;50.534;8.316;2023-04-24T06:36:53;20.30;;;5.70;;
3625;SDS011;1827;50.534;8.316;2023-04-24T06:39:20;16.57;;;4.80;;
3625;SDS011;1827;50.534;8.316;2023-04-24T06:41:45;17.60;;;5.17;;
3625;SDS011;1827;50.534;8.316;2023-04-24T06:44:18;19.33;;;4.70;;
3625;SDS011;1827;50.534;8.316;2023-04-24T06:46:44;17.73;;;4.53;;
3625;SDS011;1827;50.534;8.316;2023-04-24T06:49:09;18.70;;;4.70;;
3625;SDS011;1827;50.534;8.316;2023-04-24T06:51:35;17.20;;;4.67;;
3625;SDS011;1827;50.534;8.316;2023-04-24T06:54:01;17.53;;;4.77;;
3625;SDS011;1827;50.534;8.316;2023-04-24T06:56:27;18.30;;;5.43;;
3625;SDS011;1827;50.534;8.316;2023-04-24T06:58:54;17.83;;;5.10;;
3625;SDS011;1827;50.534;8.316;2023-04-24T07:01:19;19.17;;;5.40;;
3625;SDS011;1827;50.534;8.316;2023-04-24T07:03:45;19.77;;;5.60;;
3625;SDS011;1827;50.534;8.316;2023-04-24T07:06:11;17.40;;;4.80;;
3625;SDS011;1827;50.534;8.316;2023-04-24T07:08:37;19.57;;;5.37;;
3625;SDS011;1827;50.534;8.316;2023-04-24T07:11:03;16.73;;;5.03;;
3625;SDS011;1827;50.534;8.316;2023-04-24T07:13:29;21.47;;;5.07;;
3625;SDS011;1827;50.534;8.316;2023-04-24T07:15:55;17.40;;;5.10;;
3625;SDS011;1827;50.534;8.316;2023-04-24T07:18:21;20.63;;;5.83;;
3625;SDS011;1827;50.534;8.316;2023-04-24T07:20:48;19.47;;;5.97;;
3625;SDS011;1827;50.534;8.316;2023-04-24T07:23:17;18.40;;;5.60;;
3625;SDS011;1827;50.534;8.316;2023-04-24T07:25:44;17.13;;;5.20;;
3625;SDS011;1827;50.534;8.316;2023-04-24T07:28:10;17.37;;;5.50;;
3625;SDS011;1827;50.534;8.316;2023-04-24T07:30:36;23.20;;;5.33;;
3625;SDS011;1827;50.534;8.316;2023-04-24T07:33:01;18.77;;;5.53;;
3625;SDS011;1827;50.534;8.316;2023-04-24T07:35:27;18.33;;;5.30;;
3625;SDS011;1827;50.534;8.316;2023-04-24T07:37:53;18.37;;;5.50;;
3625;SDS011;1827;50.534;8.316;2023-04-24T07:40:19;20.93;;;5.50;;
3625;SDS011;1827;50.534;8.316;2023-04-24T07:42:45;16.80;;;5.40;;
3625;SDS011;1827;50.534;8.316;2023-04-24T07:45:13;16.30;;;5.00;;
3625;SDS011;1827;50.534;8.316;2023-04-24T07:47:39;19.20;;;5.10;;
3625;SDS011;1827;50.534;8.316;2023-04-24T07:50:09;17.60;;;5.47;;
3625;SDS011;1827;50.534;8.316;2023-04-24T07:52:35;18.77;;;5.83;;
3625;SDS011;1827;50.534;8.316;2023-04-24T07:55:01;16.57;;;5.10;;
3625;SDS011;1827;50.534;8.316;2023-04-24T07:57:27;18.77;;;6.60;;
3625;SDS011;1827;50.534;8.316;2023-04-24T07:59:53;24.20;;;6.50;;
3625;SDS011;1827;50.534;8.316;2023-04-24T08:02:19;26.77;;;6.97;;
3625;SDS011;1827;50.534;8.316;2023-04-24T08:04:46;20.63;;;5.90;;
3625;SDS011;1827;50.534;8.316;2023-04-24T08:07:12;19.53;;;6.03;;
3625;SDS011;1827;50.534;8.316;2023-04-24T08:09:38;16.87;;;5.90;;
3625;SDS011;1827;50.534;8.316;2023-04-24T08:12:04;17.40;;;5.80;;
3625;SDS011;1827;50.534;8.316;2023-04-24T08:14:29;17.67;;;5.60;;
3625;SDS011;1827;50.534;8.316;2023-04-24T08:16:55;16.83;;;4.97;;
3625;SDS011;1827;50.534;8.316;2023-04-24T08:19:21;19.87;;;5.97;;
3625;SDS011;1827;50.534;8.316;2023-04-24T08:21:47;17.60;;;5.37;;
3625;SDS011;1827;50.534;8.316;2023-04-24T08:24:12;17.90;;;5.80;;
3625;SDS011;1827;50.534;8.316;2023-04-24T08:26:38;19.47;;;5.10;;
3625;SDS011;1827;50.534;8.316;2023-04-24T08:29:04;18.10;;;5.57;;
3625;SDS011;1827;50.534;8.316;2023-04-24T08:31:31;19.57;;;5.60;;
3625;SDS011;1827;50.534;8.316;2023-04-24T08:33:57;21.90;;;5.13;;
3625;SDS011;1827;50.534;8.316;2023-04-24T08:36:24;17.37;;;5.00;;
3625;SDS011;1827;50.534;8.316;2023-04-24T08:38:51;17.20;;;4.70;;
3625;SDS011;1827;50.534;8.316;2023-04-24T08:41:17;23.00;;;4.90;;
3625;SDS011;1827;50.534;8.316;2023-04-24T08:43:45;16.33;;;4.70;;
3625;SDS011;1827;50.534;8.316;2023-04-24T08:46:12;23.33;;;5.20;;
3625;SDS011;1827;50.534;8.316;2023-04-24T08:48:38;16.60;;;4.87;;
3625;SDS011;1827;50.534;8.316;2023-04-24T08:51:06;17.90;;;4.37;;
3625;SDS011;1827;50.534;8.316;2023-04-24T08:53:33;15.50;;;4.20;;
3625;SDS011;1827;50.534;8.316;2023-04-24T08:55:59;15.13;;;4.00;;
3625;SDS011;1827;50.534;8.316;2023-04-24T08:58:26;17.53;;;3.60;;
3625;SDS011;1827;50.534;8.316;2023-04-24T09:00:54;14.57;;;3.60;;
3625;SDS011;1827;50.534;8.316;2023-04-24T09:03:21;16.10;;;4.03;;
3625;SDS011;1827;50.534;8.316;2023-04-24T09:05:47;16.10;;;4.00;;
3625;SDS011;1827;50.534;8.316;2023-04-24T09:08:16;14.30;;;3.60;;
3625;SDS011;1827;50.534;8.316;2023-04-24T09:10:43;14.63;;;3.30;;
3625;SDS011;1827;50.534;8.316;2023-04-24T09:13:09;14.50;;;3.50;;
3625;SDS011;1827;50.534;8.316;2023-04-24T09:15:36;15.20;;;3.80;;
3625;SDS011;1827;50.534;8.316;2023-04-24T09:18:02;14.73;;;3.77;;
3625;SDS011;1827;50.534;8.316;2023-04-24T09:20:29;16.07;;;4.10;;
3625;SDS011;1827;50.534;8.316;2023-04-24T09:22:56;15.70;;;3.33;;
3625;SDS011;1827;50.534;8.316;2023-04-24T09:25:22;14.80;;;3.23;;
3625;SDS011;1827;50.534;8.316;2023-04-24T09:28:02;15.70;;;3.50;;
3625;SDS011;1827;50.534;8.316;2023-04-24T09:30:28;15.40;;;3.07;;
3625;SDS011;1827;50.534;8.316;2023-04-24T09:33:10;13.90;;;3.30;;
3625;SDS011;1827;50.534;8.316;2023-04-24T09:35:40;28.10;;;3.20;;
3625;SDS011;1827;50.534;8.316;2023-04-24T09:38:06;13.70;;;3.27;;
3625;SDS011;1827;50.534;8.316;2023-04-24T09:40:33;14.70;;;3.80;;
3625;SDS011;1827;50.534;8.316;2023-04-24T09:42:59;14.50;;;3.83;;
3625;SDS011;1827;50.534;8.316;2023-04-24T09:45:28;14.37;;;3.23;;
3625;SDS011;1827;50.534;8.316;2023-04-24T09:48:00;14.07;;;3.13;;
3625;SDS011;1827;50.534;8.316;2023-04-24T09:50:25;15.30;;;2.90;;
3625;SDS011;1827;50.534;8.316;2023-04-24T09:52:58;15.80;;;3.50;;
3625;SDS011;1827;50.534;8.316;2023-04-24T09:55:26;14.60;;;3.30;;
3625;SDS011;1827;50.534;8.316;2023-04-24T09:57:56;14.57;;;3.47;;
3625;SDS011;1827;50.534;8.316;2023-04-24T10:03:05;14.23;;;2.90;;
3625;SDS011;1827;50.534;8.316;2023-04-24T10:05:32;13.83;;;2.73;;
3625;SDS011;1827;50.534;8.316;2023-04-24T10:10:28;14.10;;;2.40;;
3625;SDS011;1827;50.534;8.316;2023-04-24T10:12:55;14.80;;;2.10;;
3625;SDS011;1827;50.534;8.316;2023-04-24T10:15:21;16.10;;;2.30;;
3625;SDS011;1827;50.534;8.316;2023-04-24T10:17:48;13.73;;;2.00;;
3625;SDS011;1827;50.534;8.316;2023-04-24T10:20:18;12.97;;;1.87;;
3625;SDS011;1827;50.534;8.316;2023-04-24T10:22:48;12.50;;;1.87;;
3625;SDS011;1827;50.534;8.316;2023-04-24T10:25:25;14.50;;;1.90;;
3625;SDS011;1827;50.534;8.316;2023-04-24T10:27:55;11.90;;;1.53;;
3625;SDS011;1827;50.534;8.316;2023-04-24T10:30:24;12.07;;;1.50;;
3625;SDS011;1827;50.534;8.316;2023-04-24T10:32:51;12.10;;;1.50;;
3625;SDS011;1827;50.534;8.316;2023-04-24T10:35:17;11.43;;;1.30;;
3625;SDS011;1827;50.534;8.316;2023-04-24T10:38:27;11.80;;;1.40;;
3625;SDS011;1827;50.534;8.316;2023-04-24T10:40:37;11.47;;;1.20;;
3625;SDS011;1827;50.534;8.316;2023-04-24T10:43:03;11.47;;;1.20;;
3625;SDS011;1827;50.534;8.316;2023-04-24T10:45:31;12.03;;;1.20;;
3625;SDS011;1827;50.534;8.316;2023-04-24T10:48:04;17.50;;;1.30;;
3625;SDS011;1827;50.534;8.316;2023-04-24T10:50:48;12.10;;;1.13;;
3625;SDS011;1827;50.534;8.316;2023-04-24T10:53:18;11.83;;;1.10;;
3625;SDS011;1827;50.534;8.316;2023-04-24T10:55:47;11.27;;;1.20;;
3625;SDS011;1827;50.534;8.316;2023-04-24T10:58:15;11.43;;;1.20;;
3625;SDS011;1827;50.534;8.316;2023-04-24T11:00:42;13.80;;;1.20;;
3625;SDS011;1827;50.534;8.316;2023-04-24T11:03:33;12.10;;;1.47;;
3625;SDS011;1827;50.534;8.316;2023-04-24T11:08:29;12.07;;;1.30;;
3625;SDS011;1827;50.534;8.316;2023-04-24T11:11:10;12.00;;;1.20;;
3625;SDS011;1827;50.534;8.316;2023-04-24T11:16:25;11.47;;;1.20;;
3625;SDS011;1827;50.534;8.316;2023-04-24T11:21:48;11.73;;;1.37;;
3625;SDS011;1827;50.534;8.316;2023-04-24T11:24:37;16.20;;;1.57;;
3625;SDS011;1827;50.534;8.316;2023-04-24T11:27:17;11.90;;;1.50;;
3625;SDS011;1827;50.534;8.316;2023-04-24T11:35:00;11.80;;;1.40;;
3625;SDS011;1827;50.534;8.316;2023-04-24T11:37:27;11.97;;;1.30;;
3625;SDS011;1827;50.534;8.316;2023-04-24T11:39:58;12.97;;;1.27;;
3625;SDS011;1827;50.534;8.316;2023-04-24T11:42:24;11.67;;;1.40;;
3625;SDS011;1827;50.534;8.316;2023-04-24T11:44:54;11.97;;;1.60;;
3625;SDS011;1827;50.534;8.316;2023-04-24T11:47:42;12.07;;;1.60;;
3625;SDS011;1827;50.534;8.316;2023-04-24T11:50:08;13.43;;;1.60;;
3625;SDS011;1827;50.534;8.316;2023-04-24T11:52:39;12.87;;;1.53;;
3625;SDS011;1827;50.534;8.316;2023-04-24T11:55:22;12.00;;;1.60;;
3625;SDS011;1827;50.534;8.316;2023-04-24T11:57:52;12.70;;;1.70;;
3625;SDS011;1827;50.534;8.316;2023-04-24T12:00:39;13.10;;;1.80;;
3625;SDS011;1827;50.534;8.316;2023-04-24T12:03:08;12.30;;;1.73;;
3625;SDS011;1827;50.534;8.316;2023-04-24T12:05:36;15.67;;;2.20;;
3625;SDS011;1827;50.534;8.316;2023-04-24T12:08:02;12.50;;;1.80;;
3625;SDS011;1827;50.534;8.316;2023-04-24T12:10:29;13.03;;;1.93;;
3625;SDS011;1827;50.534;8.316;2023-04-24T12:12:56;14.27;;;2.53;;
3625;SDS011;1827;50.534;8.316;2023-04-24T12:15:23;13.00;;;2.27;;
3625;SDS011;1827;50.534;8.316;2023-04-24T12:17:53;15.03;;;2.70;;
3625;SDS011;1827;50.534;8.316;2023-04-24T12:20:29;20.60;;;2.87;;
3625;SDS011;1827;50.534;8.316;2023-04-24T12:22:57;14.70;;;2.47;;
3625;SDS011;1827;50.534;8.316;2023-04-24T12:25:25;15.53;;;2.77;;
3625;SDS011;1827;50.534;8.316;2023-04-24T12:27:53;21.50;;;3.47;;
3625;SDS011;1827;50.534;8.316;2023-04-24T12:30:41;20.67;;;3.00;;
3625;SDS011;1827;50.534;8.316;2023-04-24T12:33:11;17.90;;;3.27;;
3625;SDS011;1827;50.534;8.316;2023-04-24T12:35:36;17.90;;;3.70;;
3625;SDS011;1827;50.534;8.316;2023-04-24T12:38:05;16.13;;;3.43;;
3625;SDS011;1827;50.534;8.316;2023-04-24T12:40:32;18.13;;;3.10;;
3625;SDS011;1827;50.534;8.316;2023-04-24T12:42:58;16.20;;;4.10;;
3625;SDS011;1827;50.534;8.316;2023-04-24T12:45:23;18.00;;;4.60;;
3625;SDS011;1827;50.534;8.316;2023-04-24T12:47:50;15.73;;;3.60;;
3625;SDS011;1827;50.534;8.316;2023-04-24T12:50:16;17.03;;;4.00;;
3625;SDS011;1827;50.534;8.316;2023-04-24T12:52:42;15.40;;;3.50;;
3625;SDS011;1827;50.534;8.316;2023-04-24T12:55:08;18.13;;;4.17;;
3625;SDS011;1827;50.534;8.316;2023-04-24T12:57:35;15.47;;;3.90;;
3625;SDS011;1827;50.534;8.316;2023-04-24T13:00:02;18.63;;;4.10;;
3625;SDS011;1827;50.534;8.316;2023-04-24T13:02:29;19.60;;;4.27;;
3625;SDS011;1827;50.534;8.316;2023-04-24T13:04:58;18.77;;;4.53;;
3625;SDS011;1827;50.534;8.316;2023-04-24T13:07:25;21.23;;;5.10;;
3625;SDS011;1827;50.534;8.316;2023-04-24T13:09:52;18.90;;;4.97;;
3625;SDS011;1827;50.534;8.316;2023-04-24T13:12:19;17.97;;;4.43;;
3625;SDS011;1827;50.534;8.316;2023-04-24T13:14:45;15.20;;;3.90;;
3625;SDS011;1827;50.534;8.316;2023-04-24T13:17:11;18.07;;;3.43;;
3625;SDS011;1827;50.534;8.316;2023-04-24T13:19:38;17.90;;;4.03;;
3625;SDS011;1827;50.534;8.316;2023-04-24T13:22:06;17.83;;;3.17;;
3625;SDS011;1827;50.534;8.316;2023-04-24T13:24:34;14.33;;;3.20;;
3625;SDS011;1827;50.534;8.316;2023-04-24T13:26:59;18.93;;;3.60;;
3625;SDS011;1827;50.534;8.316;2023-04-24T13:29:26;16.33;;;3.77;;
3625;SDS011;1827;50.534;8.316;2023-04-24T13:31:52;15.83;;;3.70;;
3625;SDS011;1827;50.534;8.316;2023-04-24T13:34:20;18.00;;;3.63;;
3625;SDS011;1827;50.534;8.316;2023-04-24T13:36:46;14.80;;;3.30;;
3625;SDS011;1827;50.534;8.316;2023-04-24T13:39:14;17.03;;;3.50;;
3625;SDS011;1827;50.534;8.316;2023-04-24T13:41:40;16.23;;;3.63;;
3625;SDS011;1827;50.534;8.316;2023-04-24T13:44:06;15.87;;;3.53;;
3625;SDS011;1827;50.534;8.316;2023-04-24T13:46:32;16.03;;;3.60;;
3625;SDS011;1827;50.534;8.316;2023-04-24T13:48:58;17.13;;;3.60;;
3625;SDS011;1827;50.534;8.316;2023-04-24T13:51:25;15.50;;;3.57;;
3625;SDS011;1827;50.534;8.316;2023-04-24T13:53:54;17.60;;;4.53;;
3625;SDS011;1827;50.534;8.316;2023-04-24T13:56:20;18.43;;;4.23;;
3625;SDS011;1827;50.534;8.316;2023-04-24T13:58:47;17.87;;;4.10;;
3625;SDS011;1827;50.534;8.316;2023-04-24T14:01:13;16.97;;;4.00;;
3625;SDS011;1827;50.534;8.316;2023-04-24T14:03:40;17.47;;;4.10;;
3625;SDS011;1827;50.534;8.316;2023-04-24T14:06:08;19.27;;;4.60;;
3625;SDS011;1827;50.534;8.316;2023-04-24T14:08:34;15.30;;;3.80;;
3625;SDS011;1827;50.534;8.316;2023-04-24T14:10:59;18.40;;;4.37;;
3625;SDS011;1827;50.534;8.316;2023-04-24T14:13:25;23.77;;;4.20;;
3625;SDS011;1827;50.534;8.316;2023-04-24T14:15:51;18.03;;;4.33;;
3625;SDS011;1827;50.534;8.316;2023-04-24T14:18:17;21.30;;;4.40;;
3625;SDS011;1827;50.534;8.316;2023-04-24T14:20:44;20.10;;;4.60;;
3625;SDS011;1827;50.534;8.316;2023-04-24T14:23:10;17.53;;;4.37;;
3625;SDS011;1827;50.534;8.316;2023-04-24T14:25:36;17.47;;;4.83;;
3625;SDS011;1827;50.534;8.316;2023-04-24T14:28:02;18.77;;;4.90;;
3625;SDS011;1827;50.534;8.316;2023-04-24T14:30:27;18.73;;;4.67;;
3625;SDS011;1827;50.534;8.316;2023-04-24T14:32:53;20.90;;;4.70;;
3625;SDS011;1827;50.534;8.316;2023-04-24T14:35:19;20.23;;;4.93;;
3625;SDS011;1827;50.534;8.316;2023-04-24T14:37:45;18.00;;;4.77;;
3625;SDS011;1827;50.534;8.316;2023-04-24T14:40:11;19.70;;;5.30;;
3625;SDS011;1827;50.534;8.316;2023-04-24T14:42:36;16.40;;;4.60;;
3625;SDS011;1827;50.534;8.316;2023-04-24T14:45:02;17.50;;;4.47;;
3625;SDS011;1827;50.534;8.316;2023-04-24T14:47:28;18.30;;;4.50;;
3625;SDS011;1827;50.534;8.316;2023-04-24T14:49:54;20.07;;;4.60;;
3625;SDS011;1827;50.534;8.316;2023-04-24T14:52:20;18.60;;;5.20;;
3625;SDS011;1827;50.534;8.316;2023-04-24T14:54:45;22.30;;;6.03;;
3625;SDS011;1827;50.534;8.316;2023-04-24T14:57:11;18.07;;;5.47;;
3625;SDS011;1827;50.534;8.316;2023-04-24T14:59:37;21.00;;;5.00;;
3625;SDS011;1827;50.534;8.316;2023-04-24T15:02:02;21.77;;;5.33;;
3625;SDS011;1827;50.534;8.316;2023-04-24T15:04:28;20.93;;;5.57;;
3625;SDS011;1827;50.534;8.316;2023-04-24T15:06:54;19.57;;;5.40;;
3625;SDS011;1827;50.534;8.316;2023-04-24T15:09:20;19.77;;;4.57;;
3625;SDS011;1827;50.534;8.316;2023-04-24T15:11:47;20.53;;;4.17;;
3625;SDS011;1827;50.534;8.316;2023-04-24T15:14:14;21.00;;;4.90;;
3625;SDS011;1827;50.534;8.316;2023-04-24T15:16:40;22.70;;;5.13;;
3625;SDS011;1827;50.534;8.316;2023-04-24T15:19:06;29.13;;;5.27;;
3625;SDS011;1827;50.534;8.316;2023-04-24T15:21:31;19.73;;;4.90;;